Strona główna
METAR-TAF:

METAR-TAF

Lotnisko :

Port lotniczy Użhorod

Użhorod, Ukraina

Szerokość geograficzna: 48-38-05N, Długość geograficzna: 022-15-53E, wysokość: 117 m

Aktualna obserwacja pogody

Raport powstał 37 minut temu, godzina 04:00 UTC
Cisza
Temperatura 3°C
Wilgotność 75%
Ciśnienie 1022 hPa
Widzialność 10 km lub więcej

METAR: UKLU 090400Z 00000MPS 9999 NSC 03/M01 Q1022 NOSIG

czas: 07:37 (04:37 UTC)

Prognoza

Raport powstał 36 minut temu, godzina 04:01 UTC
Prognoza ważna od 09 godzina 04 UTC do 09 godzina 12 UTC
Wiatr 2 kt z kierunków zmiennych
Widzialność 10 km lub więcej

TAF: UKLU 090401Z 0904/0912 VRB01MPS 9999 NSC TX20/0912Z TN03/0904Z

Obserwacja i prognoza pogody dla ponad 4000 lotnisk (raport METAR i TAF).

Dostępne stacje oznaczono żółtymi i czerwonymi punktami na mapie.

Najedź kursorem aby zobaczyć nazwę stacji.

Kliknij aby zobaczyć obserwacje i prognozy pogody.

Aby zmienić mapę: kliknij na zielony przycisk z czarnym krzyżykiem, aby powiększyć; na zielony przycisk z myślnikiem, aby pomniejszyć; na zielone strzałki, aby przejść do map sąsiednich.


METAR-TAF: